Time;durP1;ratioP1;P1;durP2;ratioP2;P2;SDS_P1;SDS_P2;PMS_P1;PMS_P2;Temp;Humidity;BMP_temperature;BMP_pressure;BME280_temperature;BME280_humidity;BME280_pressure;Samples;Min_cycle;Max_cycle;Signal;HPM_P1;HPM_P2
2023/06/20 00:01:30;;;;;;;9.00;4.90;;;;;;;17.27;56.34;100546.81;1804522;79;21188;-56
2023/06/20 00:04:35;;;;;;;11.05;5.28;;;;;;;17.23;56.32;100539.16;1804671;79;21200;-55
2023/06/20 00:07:41;;;;;;;10.98;5.05;;;;;;;17.17;56.36;100545.00;1804807;79;21194;-56
2023/06/20 00:10:47;;;;;;;9.13;5.03;;;;;;;17.10;56.33;100541.94;1803239;79;21173;-55
2023/06/20 00:13:55;;;;;;;9.53;5.50;;;;;;;17.02;56.36;100538.00;1804669;79;21705;-55
2023/06/20 00:17:00;;;;;;;11.20;4.35;;;;;;;16.97;56.44;100537.78;1804692;79;21177;-55
2023/06/20 00:20:06;;;;;;;12.00;5.28;;;;;;;16.92;56.60;100548.66;1804704;79;21247;-56
2023/06/20 00:23:13;;;;;;;10.98;4.75;;;;;;;16.88;56.77;100548.23;1804693;79;21311;-55
2023/06/20 00:26:18;;;;;;;10.40;4.95;;;;;;;16.83;56.87;100540.23;1804779;79;21182;-56
2023/06/20 00:29:23;;;;;;;10.90;5.33;;;;;;;16.78;56.93;100542.78;1804210;79;21377;-55
2023/06/20 00:32:29;;;;;;;9.00;5.03;;;;;;;16.75;57.10;100536.30;1803874;79;21709;-55
2023/06/20 00:35:35;;;;;;;11.10;5.00;;;;;;;16.72;57.23;100539.48;1804338;79;21351;-54
2023/06/20 00:38:33;;;;;;;10.53;5.12;;;;;;;16.69;57.31;100542.16;1803472;79;21859;-54
2023/06/20 00:41:31;;;;;;;12.00;5.33;;;;;;;16.68;57.45;100552.05;1803151;79;21867;-55
2023/06/20 00:44:36;;;;;;;11.10;4.75;;;;;;;16.67;57.53;100557.23;1803601;79;21389;-55
2023/06/20 00:47:42;;;;;;;9.65;5.30;;;;;;;16.65;57.62;100552.47;1804076;79;21359;-55
2023/06/20 00:50:49;;;;;;;13.22;5.35;;;;;;;16.62;57.74;100549.58;1803871;79;21385;-55
2023/06/20 00:53:55;;;;;;;9.15;4.97;;;;;;;16.59;57.75;100556.91;1804104;79;21330;-54
2023/06/20 00:57:02;;;;;;;10.08;5.08;;;;;;;16.55;57.82;100549.25;1804143;79;21334;-56
2023/06/20 01:00:11;;;;;;;11.65;5.42;;;;;;;16.52;57.95;100553.83;1803785;79;21421;-54
2023/06/20 01:03:19;;;;;;;9.33;4.55;;;;;;;16.48;58.05;100552.00;1804066;79;21335;-55
2023/06/20 01:06:48;;;;;;;9.25;5.03;;;;;;;16.48;58.22;100552.52;1779609;79;21204;-55
2023/06/20 01:10:09;;;;;;;9.90;5.20;;;;;;;16.44;58.29;100551.56;1801356;79;21215;-55
2023/06/20 01:13:54;;;;;;;10.68;5.15;;;;;;;16.39;58.28;100549.92;1801433;78;21218;-55
2023/06/20 01:17:17;;;;;;;;;;;;;;;16.37;58.48;100553.45;1799145;79;21328;-55
2023/06/20 01:20:27;;;;;;;10.78;5.42;;;;;;;16.38;58.73;100556.52;1793792;79;20608;-55
2023/06/20 01:23:52;;;;;;;12.33;5.45;;;;;;;16.35;58.76;100562.47;1785650;80;21379;-55
2023/06/20 01:27:23;;;;;;;12.28;5.83;;;;;;;16.33;58.76;100563.20;1778867;79;21370;-56
2023/06/20 01:30:32;;;;;;;22.07;6.53;;;;;;;16.35;58.87;100565.75;1793484;80;21158;-54
2023/06/20 01:34:13;;;;;;;18.95;6.22;;;;;;;16.35;59.08;100560.22;1793522;80;21259;-55
2023/06/20 01:37:18;;;;;;;16.17;6.25;;;;;;;16.33;58.99;100561.81;1793569;80;21196;-54
2023/06/20 01:40:25;;;;;;;15.23;5.92;;;;;;;16.28;58.94;100550.53;1793795;79;21212;-54
2023/06/20 01:43:32;;;;;;;15.90;6.12;;;;;;;16.28;59.04;100555.23;1793524;80;21239;-54
2023/06/20 01:46:39;;;;;;;13.68;6.47;;;;;;;16.24;59.09;100554.79;1793560;80;21431;-55
2023/06/20 01:49:46;;;;;;;19.27;7.78;;;;;;;16.23;59.19;100554.48;1793052;78;21208;-55
2023/06/20 01:52:52;;;;;;;13.62;7.22;;;;;;;16.22;59.22;100551.38;1794077;79;21697;-54
2023/06/20 01:56:01;;;;;;;14.50;6.55;;;;;;;16.23;59.39;100550.86;1793527;80;21232;-56
2023/06/20 01:59:07;;;;;;;17.30;6.33;;;;;;;16.25;59.52;100551.51;1793474;78;21196;-54
2023/06/20 02:02:12;;;;;;;13.43;5.87;;;;;;;16.26;59.61;100554.58;1777243;79;21924;-55
2023/06/20 02:05:19;;;;;;;12.43;5.87;;;;;;;16.27;59.64;100554.37;1793498;80;21200;-54
2023/06/20 02:08:26;;;;;;;10.53;5.72;;;;;;;16.26;59.62;100559.58;1793529;78;21875;-54
2023/06/20 02:11:33;;;;;;;16.60;6.28;;;;;;;16.24;59.65;100555.31;1793532;80;21339;-54
2023/06/20 02:14:40;;;;;;;14.87;6.37;;;;;;;16.24;59.75;100564.45;1793527;80;21212;-55
2023/06/20 02:17:46;;;;;;;10.75;5.90;;;;;;;16.24;59.73;100559.45;1793499;80;21200;-54
2023/06/20 02:20:58;;;;;;;10.23;6.08;;;;;;;16.22;59.74;100565.19;1792084;79;21193;-55
2023/06/20 02:24:06;;;;;;;11.48;5.90;;;;;;;16.23;59.87;100563.28;1793540;78;21204;-56
2023/06/20 02:27:14;;;;;;;11.22;5.35;;;;;;;16.26;59.99;100559.58;1794001;79;21188;-54
2023/06/20 02:30:20;;;;;;;14.87;6.30;;;;;;;16.27;60.03;100564.03;1793450;79;21701;-54
2023/06/20 02:33:25;;;;;;;14.47;6.45;;;;;;;16.28;60.08;100565.73;1793521;80;21204;-55
2023/06/20 02:36:34;;;;;;;11.38;6.62;;;;;;;16.31;60.12;100568.63;1793511;79;21181;-54
2023/06/20 02:39:41;;;;;;;10.68;5.70;;;;;;;16.29;60.07;100560.55;1793522;78;21749;-55
2023/06/20 02:42:48;;;;;;;13.30;6.03;;;;;;;16.28;60.03;100562.14;1793702;79;21809;-55
2023/06/20 02:45:56;;;;;;;15.63;6.22;;;;;;;16.29;60.12;100567.45;1796746;79;21351;-55
2023/06/20 02:49:29;;;;;;;11.83;6.33;;;;;;;16.33;60.24;100567.89;1793288;80;21216;-55
2023/06/20 02:53:00;;;;;;;15.08;6.42;;;;;;;16.34;60.31;100564.92;1793447;80;21383;-55
2023/06/20 02:56:12;;;;;;;15.05;7.20;;;;;;;16.38;60.45;100570.34;1793679;79;21188;-56
2023/06/20 02:59:16;;;;;;;15.03;7.22;;;;;;;16.44;60.53;100579.20;1793875;79;21244;-54
2023/06/20 03:02:23;;;;;;;15.55;7.37;;;;;;;16.55;60.64;100576.89;1796711;79;21339;-54
2023/06/20 03:05:29;;;;;;;14.70;6.95;;;;;;;16.64;60.68;100579.77;1793803;79;21355;-55
2023/06/20 03:08:38;;;;;;;18.55;7.28;;;;;;;16.73;60.72;100582.13;1793820;79;21721;-54
2023/06/20 03:11:44;;;;;;;12.35;6.72;;;;;;;16.82;60.78;100584.17;1793386;79;21878;-54
2023/06/20 03:14:49;;;;;;;15.50;6.95;;;;;;;16.90;60.85;100586.21;1794214;79;21216;-53
2023/06/20 03:17:54;;;;;;;10.95;5.87;;;;;;;16.98;60.87;100578.23;1794175;79;21304;-53
2023/06/20 03:21:02;;;;;;;13.60;6.42;;;;;;;17.04;60.80;100580.13;1792404;79;21834;-53
2023/06/20 03:24:09;;;;;;;16.95;6.45;;;;;;;17.08;60.76;100585.55;1793270;78;21338;-54
2023/06/20 03:27:19;;;;;;;10.05;5.92;;;;;;;17.11;60.76;100583.21;1794210;79;21343;-53
2023/06/20 03:30:23;;;;;;;12.90;5.67;;;;;;;17.17;60.83;100584.29;1794400;79;21459;-53
2023/06/20 03:33:30;;;;;;;10.95;6.33;;;;;;;17.22;60.95;100578.42;1794385;78;21359;-54
2023/06/20 03:36:38;;;;;;;12.65;5.67;;;;;;;17.29;61.02;100587.58;1793887;80;21339;-54
2023/06/20 03:39:44;;;;;;;15.65;5.80;;;;;;;17.38;61.16;100592.34;1794378;79;21409;-53
2023/06/20 03:42:57;;;;;;;13.78;5.03;;;;;;;17.48;61.26;100591.41;1794035;78;21331;-53
2023/06/20 03:46:04;;;;;;;22.05;6.28;;;;;;;17.58;61.28;100587.67;1794460;79;21343;-54
2023/06/20 03:49:11;;;;;;;13.43;5.72;;;;;;;17.71;61.29;100591.81;1794349;78;21346;-54
2023/06/20 03:52:18;;;;;;;14.40;5.10;;;;;;;17.82;61.30;100583.66;1794138;80;21213;-54
2023/06/20 03:55:25;;;;;;;11.75;5.25;;;;;;;17.94;61.29;100590.77;1794392;79;21350;-55
2023/06/20 03:58:31;;;;;;;13.45;5.10;;;;;;;18.04;61.25;100587.53;1794354;79;21354;-55
2023/06/20 04:01:39;;;;;;;14.45;4.60;;;;;;;18.14;61.19;100592.91;1794932;79;21347;-55
2023/06/20 04:04:49;;;;;;;12.63;4.28;;;;;;;18.23;61.08;100595.77;1794755;79;21351;-54
2023/06/20 04:07:53;;;;;;;9.23;4.50;;;;;;;18.36;61.18;100595.69;1767738;79;21335;-54
2023/06/20 04:11:00;;;;;;;16.73;5.00;;;;;;;18.48;61.24;100600.89;1794427;79;21379;-54
2023/06/20 04:14:09;;;;;;;21.23;5.08;;;;;;;18.63;61.23;100597.83;1794795;79;21343;-53
2023/06/20 04:17:15;;;;;;;14.80;4.92;;;;;;;18.80;61.22;100592.92;1794528;79;21332;-53
2023/06/20 04:20:21;;;;;;;14.38;4.87;;;;;;;18.95;61.19;100606.44;1794190;80;21833;-55
2023/06/20 04:23:26;;;;;;;10.00;4.72;;;;;;;19.10;61.13;100610.63;1801240;79;21173;-54
2023/06/20 04:26:32;;;;;;;7.78;3.80;;;;;;;19.25;61.12;100615.28;1802287;79;21185;-54
2023/06/20 04:29:38;;;;;;;12.55;4.03;;;;;;;19.39;61.03;100616.07;1802117;78;21199;-53
2023/06/20 04:32:47;;;;;;;10.23;4.62;;;;;;;19.55;60.93;100614.64;1802307;79;21184;-54
2023/06/20 04:35:57;;;;;;;8.98;4.30;;;;;;;19.71;60.90;100616.83;1801957;79;21389;-54
2023/06/20 04:39:03;;;;;;;7.08;3.80;;;;;;;19.91;60.88;100622.48;1802245;79;21193;-54
2023/06/20 04:42:12;;;;;;;9.35;4.45;;;;;;;20.13;60.76;100625.64;1802231;79;21788;-54
2023/06/20 04:45:18;;;;;;;9.73;3.80;;;;;;;20.29;60.61;100626.44;1802240;79;21188;-54
2023/06/20 04:48:27;;;;;;;10.90;7.83;;;;;;;20.43;60.44;100628.83;1802410;78;21776;-55
2023/06/20 04:51:34;;;;;;;18.07;8.58;;;;;;;20.57;60.29;100632.27;1783396;79;21824;-53
2023/06/20 04:54:42;;;;;;;16.77;7.22;;;;;;;20.68;60.16;100620.34;1749896;81;21243;-52
2023/06/20 04:57:48;;;;;;;9.10;3.85;;;;;;;20.78;60.03;100617.32;1772799;80;21350;-53
2023/06/20 05:00:54;;;;;;;7.60;3.27;;;;;;;20.90;59.92;100614.55;1772884;81;21354;-53
2023/06/20 05:04:00;;;;;;;18.35;7.62;;;;;;;20.99;59.75;100617.36;1772842;81;21455;-53
2023/06/20 05:07:06;;;;;;;7.33;4.25;;;;;;;21.11;59.61;100617.37;1770767;79;21342;-55
2023/06/20 05:10:15;;;;;;;7.92;4.58;;;;;;;21.22;59.39;100616.01;1769951;80;21218;-55
2023/06/20 05:13:21;;;;;;;10.43;4.00;;;;;;;21.37;59.22;100623.91;1762845;79;21349;-55
2023/06/20 05:16:26;;;;;;;13.18;6.45;;;;;;;21.52;59.05;100618.70;1785081;79;21432;-54
2023/06/20 05:19:33;;;;;;;8.90;5.58;;;;;;;21.67;58.89;100629.70;1790134;79;21356;-54
2023/06/20 05:22:40;;;;;;;10.30;4.97;;;;;;;21.81;58.71;100633.97;1793893;79;21387;-54
2023/06/20 05:25:47;;;;;;;11.83;5.30;;;;;;;21.96;58.45;100631.52;1780929;79;21768;-55
2023/06/20 05:28:53;;;;;;;13.32;5.05;;;;;;;22.10;58.21;100629.34;1776500;80;21337;-55
2023/06/20 05:31:59;;;;;;;8.70;4.35;;;;;;;22.21;57.96;100627.90;1797775;79;21368;-56
2023/06/20 05:35:07;;;;;;;9.60;4.03;;;;;;;22.32;57.72;100630.92;1796964;79;21352;-56
2023/06/20 05:38:15;;;;;;;9.28;4.35;;;;;;;22.39;57.51;100628.86;1796897;79;21222;-57
2023/06/20 05:41:22;;;;;;;12.18;4.75;;;;;;;22.44;57.35;100623.39;1786643;79;21206;-57
2023/06/20 05:44:27;;;;;;;8.60;4.10;;;;;;;22.49;57.21;100624.33;1780075;79;21793;-57
2023/06/20 05:47:34;;;;;;;8.60;3.85;;;;;;;22.60;57.08;100622.61;1766671;80;21313;-58
2023/06/20 05:50:41;;;;;;;9.50;3.58;;;;;;;22.71;56.92;100625.91;1787495;79;21422;-57
2023/06/20 05:53:48;;;;;;;10.98;5.12;;;;;;;22.80;56.67;100637.81;1794664;79;21346;-60
2023/06/20 05:56:57;;;;;;;8.95;3.77;;;;;;;22.90;56.50;100636.63;1798625;79;21831;-57
2023/06/20 06:00:12;;;;;;;8.23;3.70;;;;;;;23.06;56.42;100626.59;1728886;82;21395;-55
2023/06/20 06:03:18;;;;;;;15.30;3.77;;;;;;;23.17;56.22;100620.95;1767861;80;21812;-53
2023/06/20 06:06:17;;;;;;;5.95;3.42;;;;;;;23.30;56.04;100623.99;1785024;79;21387;-55
2023/06/20 06:09:23;;;;;;;9.80;4.15;;;;;;;23.40;55.86;100618.59;1766766;80;22042;-55
2023/06/20 06:12:31;;;;;;;11.15;3.40;;;;;;;23.48;55.62;100609.78;1754031;81;21199;-55
2023/06/20 06:15:38;;;;;;;5.83;2.98;;;;;;;23.56;55.40;100609.36;1796445;80;21177;-53
2023/06/20 06:18:44;;;;;;;7.83;3.75;;;;;;;23.63;55.13;100613.38;1795817;79;21204;-56
2023/06/20 06:21:50;;;;;;;8.88;3.87;;;;;;;23.69;54.95;100615.97;1783242;80;21212;-54
2023/06/20 06:24:58;;;;;;;7.78;3.87;;;;;;;23.76;54.77;100622.25;1795313;79;21218;-54
2023/06/20 06:28:05;;;;;;;10.53;4.33;;;;;;;23.82;54.56;100623.19;1796171;80;21284;-54
2023/06/20 06:31:16;;;;;;;12.55;4.95;;;;;;;23.83;54.30;100613.69;1769622;79;21408;-54
2023/06/20 06:34:22;;;;;;;8.20;5.00;;;;;;;23.82;54.06;100601.64;1795026;79;21204;-58
2023/06/20 06:37:29;;;;;;;12.80;4.90;;;;;;;23.79;53.91;100610.55;1794021;79;21319;-56
2023/06/20 06:40:34;;;;;;;8.10;4.97;;;;;;;23.71;53.76;100610.98;1768652;79;21231;-55
2023/06/20 06:43:40;;;;;;;13.18;4.85;;;;;;;23.64;53.57;100618.14;1771607;79;21798;-54
2023/06/20 06:46:47;;;;;;;17.17;5.10;;;;;;;23.58;53.43;100621.11;1754028;79;21741;-55
2023/06/20 06:49:52;;;;;;;16.00;4.83;;;;;;;23.56;53.38;100626.13;1772422;79;21211;-54
2023/06/20 06:52:58;;;;;;;9.00;5.00;;;;;;;23.57;53.30;100629.20;1747777;81;21173;-55
2023/06/20 06:56:05;;;;;;;12.78;4.53;;;;;;;23.57;53.25;100616.63;1728471;82;21307;-55
2023/06/20 06:59:13;;;;;;;14.07;4.55;;;;;;;23.56;53.21;100605.98;1716082;82;21332;-54
2023/06/20 07:02:19;;;;;;;16.00;7.12;;;;;;;23.57;53.09;100605.45;1788130;79;21376;-58
2023/06/20 07:05:28;;;;;;;16.15;6.95;;;;;;;23.56;52.96;100612.98;1778639;79;21844;-54
2023/06/20 07:08:34;;;;;;;15.30;7.12;;;;;;;23.59;52.86;100611.64;1789187;79;21514;-53
2023/06/20 07:11:39;;;;;;;17.85;7.20;;;;;;;23.61;52.77;100617.25;1776750;79;21814;-53
2023/06/20 07:14:45;;;;;;;9.98;6.22;;;;;;;23.67;52.74;100609.81;1782977;79;21406;-54
2023/06/20 07:17:51;;;;;;;16.17;6.55;;;;;;;23.78;52.79;100615.00;1783680;79;21370;-54
2023/06/20 07:21:03;;;;;;;15.98;8.80;;;;;;;23.89;52.90;100606.52;1778258;80;21374;-54
2023/06/20 07:24:10;;;;;;;15.85;6.60;;;;;;;24.03;52.87;100610.66;1772730;79;21199;-53
2023/06/20 07:27:16;;;;;;;13.88;6.58;;;;;;;24.17;52.88;100606.92;1764365;81;21231;-55
2023/06/20 07:30:23;;;;;;;8.68;5.65;;;;;;;24.29;52.79;100606.27;1788913;79;21971;-55
2023/06/20 07:33:30;;;;;;;6.55;4.25;;;;;;;24.42;52.75;100605.88;1794910;79;21845;-53
2023/06/20 07:36:36;;;;;;;8.03;4.22;;;;;;;24.53;52.62;100602.10;1783040;79;21467;-55
2023/06/20 07:39:46;;;;;;;9.73;4.80;;;;;;;24.61;52.48;100599.66;1792814;80;21208;-54
2023/06/20 07:42:54;;;;;;;7.08;4.30;;;;;;;24.68;52.34;100594.75;1769665;79;21370;-55
2023/06/20 07:46:02;;;;;;;11.30;5.03;;;;;;;24.75;52.33;100592.57;1789648;79;21375;-54
2023/06/20 07:49:08;;;;;;;6.12;3.35;;;;;;;24.76;52.17;100592.03;1760751;80;21247;-54
2023/06/20 07:52:15;;;;;;;10.60;4.00;;;;;;;24.83;52.09;100585.67;1782128;79;21185;-54
2023/06/20 07:55:19;;;;;;;6.78;3.60;;;;;;;24.95;51.97;100585.80;1774420;80;21705;-54
2023/06/20 07:58:27;;;;;;;6.65;3.62;;;;;;;25.08;51.84;100578.92;1766411;81;21821;-54
2023/06/20 08:01:33;;;;;;;7.55;3.70;;;;;;;25.29;51.72;100577.15;1781963;79;21696;-55
2023/06/20 08:04:40;;;;;;;8.43;3.70;;;;;;;25.49;51.57;100576.79;1766123;81;21577;-55
2023/06/20 08:07:47;;;;;;;7.05;3.58;;;;;;;25.70;51.32;100581.44;1772398;80;21845;-54
2023/06/20 08:10:53;;;;;;;6.55;3.47;;;;;;;25.80;51.04;100580.09;1729730;82;21343;-54
2023/06/20 08:14:00;;;;;;;9.10;3.72;;;;;;;25.85;50.70;100582.92;1782187;79;21263;-53
2023/06/20 08:17:05;;;;;;;5.05;3.77;;;;;;;25.81;50.38;100582.34;1778895;78;21176;-55
2023/06/20 08:20:13;;;;;;;7.83;3.67;;;;;;;25.76;50.13;100584.56;1767092;80;21248;-55
2023/06/20 08:23:18;;;;;;;6.65;3.35;;;;;;;25.75;49.88;100587.05;1767771;80;21257;-53
2023/06/20 08:26:25;;;;;;;7.45;3.90;;;;;;;25.70;49.67;100583.39;1763761;79;21172;-54
2023/06/20 08:29:32;;;;;;;8.78;5.20;;;;;;;25.69;49.41;100585.92;1760231;80;21720;-54
2023/06/20 08:32:41;;;;;;;4.95;3.17;;;;;;;25.70;49.21;100583.39;1774480;79;21203;-53
2023/06/20 08:35:46;;;;;;;7.37;3.70;;;;;;;25.77;49.04;100575.02;1801203;79;21817;-54
2023/06/20 08:38:54;;;;;;;6.87;3.35;;;;;;;25.91;48.89;100576.80;1800198;79;21351;-53
2023/06/20 08:42:02;;;;;;;7.85;3.27;;;;;;;26.09;48.73;100574.95;1786025;79;21205;-51
2023/06/20 08:45:08;;;;;;;6.35;3.50;;;;;;;26.27;48.60;100572.52;1778476;79;21259;-53
2023/06/20 08:48:14;;;;;;;7.90;3.17;;;;;;;26.45;48.27;100572.59;1779615;79;21259;-51
2023/06/20 08:51:23;;;;;;;3.98;2.62;;;;;;;26.65;48.07;100574.11;1781605;79;21240;-51
2023/06/20 08:54:30;;;;;;;4.67;3.02;;;;;;;26.82;47.72;100576.11;1796597;79;21173;-52
2023/06/20 08:57:36;;;;;;;7.33;3.30;;;;;;;26.96;47.47;100570.79;1798813;79;22310;-55
2023/06/20 09:00:45;;;;;;;7.87;3.17;;;;;;;27.14;47.25;100563.23;1769375;79;21203;-54
2023/06/20 09:03:56;;;;;;;4.85;2.83;;;;;;;27.33;46.93;100564.40;1799858;79;21756;-55
2023/06/20 09:07:01;;;;;;;5.97;3.00;;;;;;;27.42;46.56;100564.96;1802045;79;21327;-52
2023/06/20 09:10:09;;;;;;;4.55;2.77;;;;;;;27.55;46.28;100564.39;1792966;79;22070;-53
2023/06/20 09:13:15;;;;;;;6.53;3.10;;;;;;;27.72;46.00;100559.30;1776456;79;21200;-53
2023/06/20 09:16:20;;;;;;;4.97;3.02;;;;;;;27.96;45.72;100562.92;1763486;81;21216;-54
2023/06/20 09:19:26;;;;;;;4.90;3.05;;;;;;;28.16;45.37;100558.11;1768850;79;21248;-53
2023/06/20 09:22:33;;;;;;;5.72;2.77;;;;;;;28.30;44.94;100556.91;1796336;79;21300;-54
2023/06/20 09:25:40;;;;;;;5.42;3.12;;;;;;;28.42;44.64;100548.41;1802981;79;21370;-54
2023/06/20 09:28:46;;;;;;;4.25;3.05;;;;;;;28.61;44.36;100542.98;1771007;80;21259;-54
2023/06/20 09:31:55;;;;;;;5.00;3.10;;;;;;;28.74;43.98;100548.83;1770238;81;21660;-52
2023/06/20 09:35:01;;;;;;;7.28;3.27;;;;;;;28.77;43.53;100551.63;1770809;81;21223;-54
2023/06/20 09:38:09;;;;;;;6.58;3.35;;;;;;;28.73;43.18;100542.08;1771374;81;21369;-54
2023/06/20 09:41:15;;;;;;;6.12;2.80;;;;;;;28.78;42.91;100523.73;1755412;80;21385;-53
2023/06/20 09:44:23;;;;;;;7.55;3.20;;;;;;;28.78;42.91;100523.73;1771693;81;21216;-54
2023/06/20 09:47:29;;;;;;;5.97;3.55;;;;;;;28.89;42.49;100528.16;1774583;80;21854;-55
2023/06/20 09:50:35;;;;;;;4.92;3.37;;;;;;;28.83;42.09;100516.62;1799965;79;21389;-55
2023/06/20 09:54:12;;;;;;;6.80;3.27;;;;;;;28.72;41.80;100529.10;1801669;79;21923;-53
2023/06/20 09:57:21;;;;;;;6.85;3.25;;;;;;;28.57;41.62;100523.02;1769553;80;21897;-55
2023/06/20 10:00:27;;;;;;;6.67;3.62;;;;;;;28.53;41.52;100521.89;1763634;79;21408;-55
2023/06/20 10:03:34;;;;;;;8.68;3.55;;;;;;;28.67;41.42;100524.34;1771008;79;21220;-54
2023/06/20 10:06:42;;;;;;;9.65;3.90;;;;;;;28.88;41.28;100519.41;1780759;79;21259;-53
2023/06/20 10:09:49;;;;;;;6.65;3.62;;;;;;;29.09;41.08;100520.98;1784735;79;21357;-54
2023/06/20 10:12:55;;;;;;;7.92;3.25;;;;;;;29.30;40.99;100522.50;1777973;79;21848;-55
2023/06/20 10:16:00;;;;;;;9.30;4.87;;;;;;;29.49;40.79;100512.73;1778530;79;21188;-56
2023/06/20 10:19:24;;;;;;;7.08;3.15;;;;;;;29.59;40.31;100510.64;1771008;81;21871;-61
2023/06/20 10:22:44;;;;;;;7.40;4.05;;;;;;;29.74;40.05;100504.02;1759885;79;21359;-60
2023/06/20 10:26:02;;;;;;;5.05;3.77;;;;;;;29.74;40.05;100504.02;1795312;79;21208;-58
2023/06/20 10:29:07;;;;;;;8.10;3.45;;;;;;;29.99;39.88;100496.11;1794343;79;21321;-62
2023/06/20 10:32:15;;;;;;;7.58;3.62;;;;;;;30.27;39.76;100498.03;1783117;79;21341;-61
2023/06/20 10:35:23;;;;;;;7.05;4.17;;;;;;;30.51;39.57;100500.81;1754871;81;21251;-61
2023/06/20 10:38:28;;;;;;;7.20;3.87;;;;;;;30.72;39.34;100490.89;1771292;80;21903;-61
2023/06/20 10:41:35;;;;;;;7.10;4.28;;;;;;;30.97;39.09;100482.62;1771704;81;21426;-62
2023/06/20 10:44:44;;;;;;;6.10;3.52;;;;;;;31.16;38.78;100472.94;1792706;79;21873;-60
2023/06/20 10:48:02;;;;;;;6.47;3.75;;;;;;;31.24;38.36;100481.32;1767610;79;21223;-62
2023/06/20 10:51:09;;;;;;;5.83;3.77;;;;;;;31.27;38.07;100463.72;1761065;81;21192;-59
2023/06/20 10:54:19;;;;;;;7.95;3.75;;;;;;;31.40;37.92;100462.92;1791469;79;21904;-60
2023/06/20 10:57:25;;;;;;;9.00;3.60;;;;;;;31.54;37.81;100470.30;1803303;79;21409;-57
2023/06/20 11:00:31;;;;;;;4.45;3.67;;;;;;;31.68;37.53;100464.66;1802038;79;21333;-58
2023/06/20 11:03:37;;;;;;;9.28;4.17;;;;;;;31.55;37.19;100462.65;1801839;79;21321;-59
2023/06/20 11:06:43;;;;;;;9.58;3.98;;;;;;;31.46;36.96;100467.36;1795203;79;21263;-59
2023/06/20 11:09:48;;;;;;;8.20;4.03;;;;;;;31.53;36.83;100470.61;1778097;79;21525;-60
2023/06/20 11:12:55;;;;;;;6.55;3.95;;;;;;;31.58;36.55;100462.02;1802387;79;21346;-60
2023/06/20 11:16:00;;;;;;;7.75;4.58;;;;;;;31.53;36.28;100462.97;1800339;79;21350;-59
2023/06/20 11:19:05;;;;;;;10.53;4.10;;;;;;;31.42;36.10;100458.65;1768641;79;21239;-62
2023/06/20 11:22:13;;;;;;;7.35;4.35;;;;;;;31.52;36.20;100454.22;1755226;79;21256;-60
2023/06/20 11:25:19;;;;;;;5.37;3.92;;;;;;;31.65;36.13;100454.79;1800400;79;21494;-59
2023/06/20 11:28:26;;;;;;;5.42;4.00;;;;;;;31.72;35.95;100450.13;1781063;79;21713;-58
2023/06/20 11:31:31;;;;;;;6.03;3.95;;;;;;;31.69;35.74;100442.27;1800964;79;21414;-60
2023/06/20 11:34:38;;;;;;;7.58;4.00;;;;;;;31.61;35.62;100437.33;1772628;79;21425;-57
2023/06/20 11:37:46;;;;;;;8.13;4.22;;;;;;;31.47;35.41;100432.23;1772139;81;21848;-59
2023/06/20 11:40:53;;;;;;;8.38;4.25;;;;;;;31.29;35.29;100434.52;1776163;79;21216;-60
2023/06/20 11:44:00;;;;;;;6.37;4.05;;;;;;;31.30;35.36;100427.73;1790194;79;21769;-59
2023/06/20 11:47:06;;;;;;;9.73;4.15;;;;;;;31.37;35.35;100426.75;1781649;79;21398;-61
2023/06/20 11:50:14;;;;;;;8.00;4.33;;;;;;;31.40;35.20;100422.73;1737052;80;21264;-60
2023/06/20 11:53:31;;;;;;;8.23;4.65;;;;;;;31.47;35.14;100419.50;1780314;79;21831;-60
2023/06/20 11:56:37;;;;;;;7.95;4.20;;;;;;;31.51;34.94;100409.21;1774703;79;21776;-60
2023/06/20 11:59:43;;;;;;;8.30;4.80;;;;;;;31.50;34.79;100410.37;1794869;79;21355;-60
2023/06/20 12:02:49;;;;;;;6.87;4.50;;;;;;;31.46;34.64;100411.57;1769528;79;21247;-60
2023/06/20 12:05:56;;;;;;;7.20;4.50;;;;;;;31.39;34.49;100407.48;1765536;80;21203;-60
2023/06/20 12:09:16;;;;;;;9.68;5.45;;;;;;;31.29;34.43;100406.22;1783316;79;21351;-60
2023/06/20 12:12:18;;;;;;;7.35;4.85;;;;;;;31.23;34.36;100401.25;1769912;79;21364;-60
2023/06/20 12:15:23;;;;;;;10.55;5.65;;;;;;;31.13;34.15;100394.95;1784412;79;21237;-60
2023/06/20 12:18:30;;;;;;;7.25;5.95;;;;;;;31.02;34.09;100396.25;1789770;79;21849;-60
2023/06/20 12:21:38;;;;;;;10.10;6.65;;;;;;;30.86;33.99;100394.88;1795852;79;21354;-60
2023/06/20 12:24:46;;;;;;;9.08;6.20;;;;;;;30.68;33.92;100394.54;1791374;79;21397;-59
2023/06/20 12:27:52;;;;;;;13.58;6.20;;;;;;;30.62;34.00;100392.95;1794072;79;21251;-55
2023/06/20 12:30:59;;;;;;;7.90;5.37;;;;;;;30.66;34.05;100391.77;1799792;79;21559;-59
2023/06/20 12:34:05;;;;;;;11.48;5.40;;;;;;;30.64;34.07;100393.49;1723276;81;21291;-60
2023/06/20 12:37:10;;;;;;;8.88;4.85;;;;;;;30.60;34.14;100400.08;1746374;80;21205;-58
2023/06/20 12:40:17;;;;;;;11.48;5.58;;;;;;;30.45;34.14;100401.14;1708499;82;21367;-58
2023/06/20 12:43:23;;;;;;;8.30;5.80;;;;;;;30.19;34.22;100401.81;1768196;79;21189;-59
2023/06/20 12:46:27;;;;;;;9.08;5.60;;;;;;;29.94;34.28;100410.64;1766394;79;21192;-58
2023/06/20 12:49:36;;;;;;;6.53;4.97;;;;;;;29.75;34.38;100416.81;1791410;79;21412;-55
2023/06/20 12:52:43;;;;;;;7.42;4.62;;;;;;;29.55;34.43;100409.39;1802879;79;21383;-58
2023/06/20 12:55:49;;;;;;;9.50;4.75;;;;;;;29.36;34.50;100414.12;1792653;79;21731;-58
2023/06/20 12:58:55;;;;;;;7.03;4.90;;;;;;;29.10;34.45;100409.30;1798396;79;21393;-57
2023/06/20 13:02:02;;;;;;;8.85;4.78;;;;;;;28.88;34.51;100410.33;1792355;79;21355;-58
2023/06/20 13:05:09;;;;;;;6.45;5.60;;;;;;;28.70;34.63;100410.22;1791067;79;21370;-57
2023/06/20 13:08:18;;;;;;;9.20;5.30;;;;;;;28.26;34.87;100418.65;1803285;79;21413;-59
2023/06/20 13:11:24;;;;;;;11.63;5.83;;;;;;;28.26;34.87;100418.65;1791460;79;21722;-56
2023/06/20 13:14:30;;;;;;;6.95;4.78;;;;;;;28.06;34.94;100406.66;1792453;80;21267;-56
2023/06/20 13:17:39;;;;;;;6.60;5.33;;;;;;;27.98;35.07;100400.23;1787280;79;21389;-55
2023/06/20 13:20:46;;;;;;;7.15;5.22;;;;;;;27.91;35.26;100397.73;1786465;79;21367;-58
2023/06/20 13:23:52;;;;;;;8.35;5.95;;;;;;;27.86;35.38;100401.94;1787216;79;21208;-57
2023/06/20 13:26:59;;;;;;;8.00;6.28;;;;;;;27.81;35.67;100396.36;1781143;79;21374;-57
2023/06/20 13:30:06;;;;;;;10.30;6.15;;;;;;;27.91;36.01;100394.09;1784848;79;21425;-59
2023/06/20 13:33:14;;;;;;;7.25;5.50;;;;;;;28.05;36.30;100391.73;1783739;79;21389;-59
2023/06/20 13:36:21;;;;;;;9.25;6.30;;;;;;;28.16;36.53;100393.95;1785074;79;21248;-58
2023/06/20 13:39:30;;;;;;;7.17;6.03;;;;;;;28.13;36.71;100388.90;1795903;79;21358;-60
2023/06/20 13:42:48;;;;;;;8.60;5.92;;;;;;;28.19;36.87;100387.73;1781796;79;21200;-56
2023/06/20 13:45:47;;;;;;;7.78;6.60;;;;;;;28.32;37.17;100379.45;1771854;81;21366;-58
2023/06/20 13:48:57;;;;;;;8.65;7.15;;;;;;;28.41;37.37;100368.42;1789089;79;21192;-59
2023/06/20 13:52:03;;;;;;;15.85;11.05;;;;;;;28.55;37.45;100362.42;1802055;79;21358;-58
2023/06/20 13:55:08;;;;;;;17.27;9.60;;;;;;;28.69;37.59;100360.60;1802101;79;21338;-59
2023/06/20 13:58:14;;;;;;;8.00;6.37;;;;;;;28.90;37.74;100350.83;1786316;79;21350;-58
2023/06/20 14:01:20;;;;;;;8.43;6.47;;;;;;;29.06;37.73;100353.25;1797435;79;21768;-54
2023/06/20 14:04:27;;;;;;;10.23;6.70;;;;;;;29.18;37.71;100354.22;1781803;79;21703;-57
2023/06/20 14:07:33;;;;;;;9.13;6.33;;;;;;;29.21;37.58;100351.66;1742784;81;21239;-54
2023/06/20 14:10:39;;;;;;;9.30;6.20;;;;;;;29.15;37.49;100351.45;1786671;80;21329;-55
2023/06/20 14:13:47;;;;;;;6.78;6.00;;;;;;;29.03;37.37;100350.14;1785478;80;21210;-54
2023/06/20 14:16:55;;;;;;;7.95;6.90;;;;;;;28.96;37.35;100341.18;1786015;80;21249;-55
2023/06/20 14:20:05;;;;;;;8.20;6.67;;;;;;;28.91;37.40;100344.89;1781340;79;21740;-59
2023/06/20 14:23:10;;;;;;;8.28;6.50;;;;;;;28.91;37.50;100346.86;1760126;80;21292;-56
2023/06/20 14:26:18;;;;;;;7.78;6.15;;;;;;;28.96;37.50;100345.41;1762007;79;21199;-58
2023/06/20 14:29:23;;;;;;;7.58;6.30;;;;;;;29.12;37.62;100331.45;1800020;79;21735;-56